createdAt,value
2022-09-02T00:27:57.842Z,99534.03
2022-09-02T00:30:29.193Z,99536.09
2022-09-02T00:32:58.363Z,99536.09
2022-09-02T00:35:27.982Z,99519.19
2022-09-02T00:37:57.027Z,99525.56
2022-09-02T00:40:28.751Z,99531.91
2022-09-02T00:42:59.168Z,99523.19
2022-09-02T00:45:28.987Z,99526.91
2022-09-02T00:47:58.524Z,99517.44
2022-09-02T00:50:32.477Z,99518.00
2022-09-02T00:53:08.443Z,99515.13
2022-09-02T00:55:45.285Z,99521.47
2022-09-02T00:58:20.908Z,99508.94
2022-09-02T01:00:56.689Z,99521.09
2022-09-02T01:03:30.628Z,99511.63
2022-09-02T01:06:02.852Z,99516.31
2022-09-02T01:08:36.399Z,99509.75
2022-09-02T01:11:08.135Z,99522.66
2022-09-02T01:13:40.646Z,99513.97
2022-09-02T01:16:18.820Z,99512.94
2022-09-02T01:18:54.808Z,99505.56
2022-09-02T01:21:25.020Z,99505.00
2022-09-02T01:23:56.419Z,99501.28
2022-09-02T01:26:25.783Z,99508.41
2022-09-02T01:28:55.340Z,99513.47
2022-09-02T01:31:24.773Z,99505.56
2022-09-02T01:33:55.227Z,99501.84
2022-09-02T01:36:24.642Z,99502.88
2022-09-02T01:38:55.510Z,99509.75
2022-09-02T01:41:25.085Z,99506.56
2022-09-02T01:43:54.740Z,99501.28
2022-09-02T01:46:24.670Z,99505.75
2022-09-02T01:48:54.758Z,99498.16
2022-09-02T01:51:24.813Z,99501.84
2022-09-02T01:53:55.925Z,99496.63
2022-09-02T01:56:25.282Z,99494.03
2022-09-02T01:58:55.516Z,99492.81
2022-09-02T02:01:25.146Z,99500.28
2022-09-02T02:03:55.319Z,99505.22
2022-09-02T02:06:26.913Z,99501.03
2022-09-02T02:08:58.685Z,99492.63
2022-09-02T02:11:29.950Z,99495.75
2022-09-02T02:14:01.687Z,99493.66
2022-09-02T02:16:31.257Z,99491.50
2022-09-02T02:19:01.095Z,99501.50
2022-09-02T02:21:30.672Z,99496.22
2022-09-02T02:24:01.640Z,99488.31
2022-09-02T02:26:32.801Z,99500.94
2022-09-02T02:29:02.398Z,99502.50
2022-09-02T02:31:32.161Z,99493.03
2022-09-02T02:34:01.964Z,99501.72
2022-09-02T02:36:31.616Z,99500.94
2022-09-02T02:39:02.724Z,99489.59
2022-09-02T02:41:32.609Z,99494.09
2022-09-02T02:44:02.766Z,99499.94
2022-09-02T02:46:33.574Z,99499.28
2022-09-02T02:49:03.783Z,99499.38
2022-09-02T02:51:33.860Z,99503.38
2022-09-02T02:54:05.854Z,99497.53
2022-09-02T02:56:35.748Z,99496.97
2022-09-02T02:59:06.198Z,99497.22
2022-09-02T03:01:36.490Z,99498.00
2022-09-02T03:04:07.917Z,99486.94
2022-09-02T03:06:37.537Z,99494.84
2022-09-02T03:09:08.372Z,99490.13
2022-09-02T03:11:39.751Z,99495.41
2022-09-02T03:14:09.924Z,99484.84
2022-09-02T03:16:40.041Z,99490.94
2022-09-02T03:19:09.774Z,99488.00
2022-09-02T03:21:39.455Z,99485.88
2022-09-02T03:24:14.115Z,99486.94
2022-09-02T03:26:44.388Z,99486.16
2022-09-02T03:29:15.264Z,99487.22
2022-09-02T03:31:46.228Z,99484.84
2022-09-02T03:34:16.079Z,99483.78
2022-09-02T03:36:45.934Z,99483.78
2022-09-02T03:39:18.118Z,99479.59
2022-09-02T03:41:50.434Z,99489.06
2022-09-02T03:44:20.413Z,99482.22
2022-09-02T03:46:50.193Z,99484.84
2022-09-02T03:49:19.634Z,99481.16
2022-09-02T03:51:49.113Z,99480.38
2022-09-02T03:54:20.425Z,99478.03
2022-09-02T03:56:50.074Z,99475.38
2022-09-02T03:59:21.287Z,99479.66
2022-09-02T04:01:51.579Z,99469.59
2022-09-02T04:04:22.945Z,99474.88
2022-09-02T04:06:54.534Z,99483.06
2022-09-02T04:09:25.635Z,99483.84
2022-09-02T04:11:55.863Z,99480.69
2022-09-02T04:14:25.808Z,99479.13
2022-09-02T04:16:55.718Z,99473.41
2022-09-02T04:19:26.145Z,99470.25
2022-09-02T04:21:55.741Z,99469.47
2022-09-02T04:24:26.664Z,99471.03
2022-09-02T04:26:59.498Z,99477.09
2022-09-02T04:29:34.317Z,99473.41
2022-09-02T04:32:04.689Z,99482.38
2022-09-02T04:34:34.601Z,99482.38
2022-09-02T04:37:06.224Z,99479.75
2022-09-02T04:39:40.982Z,99476.09
2022-09-02T04:42:12.129Z,99473.72
2022-09-02T04:44:46.596Z,99469.78
2022-09-02T04:47:19.580Z,99481.41
2022-09-02T04:49:52.082Z,99484.81
2022-09-02T04:52:25.818Z,99478.25
2022-09-02T04:55:00.467Z,99484.31
2022-09-02T04:57:37.690Z,99484.06
2022-09-02T05:00:12.522Z,99480.63
2022-09-02T05:02:44.083Z,99488.28
2022-09-02T05:05:15.221Z,99488.28
2022-09-02T05:07:45.282Z,99482.25
2022-09-02T05:10:16.541Z,99485.63
2022-09-02T05:12:48.949Z,99486.44
2022-09-02T05:15:19.879Z,99487.25
2022-09-02T05:17:50.563Z,99484.59
2022-09-02T05:20:21.007Z,99478.25
2022-09-02T05:22:56.263Z,99480.91
2022-09-02T05:25:35.271Z,99473.81
2022-09-02T05:28:16.835Z,99482.53
2022-09-02T05:30:49.070Z,99481.97
2022-09-02T05:33:20.299Z,99490.38
2022-09-02T05:35:56.631Z,99494.31
2022-09-02T05:38:29.035Z,99488.78
2022-09-02T05:41:08.633Z,99493.25
2022-09-02T05:43:39.544Z,99497.47
2022-09-02T05:46:12.882Z,99489.81
2022-09-02T05:49:04.521Z,99494.56
2022-09-02T05:51:41.117Z,99480.88
2022-09-02T05:54:18.483Z,99482.19
2022-09-02T05:56:53.869Z,99480.84
2022-09-02T05:59:31.233Z,99482.94
2022-09-02T06:02:07.276Z,99493.13
2022-09-02T06:04:41.081Z,99495.19
2022-09-02T06:07:19.727Z,99487.22
2022-09-02T06:09:56.603Z,99488.75
2022-09-02T06:12:42.433Z,99485.50
2022-09-02T06:15:15.828Z,99486.22
2022-09-02T06:17:49.006Z,99483.56
2022-09-02T06:20:20.058Z,99481.84
2022-09-02T06:22:51.461Z,99487.03
2022-09-02T06:25:25.646Z,99484.56
2022-09-02T06:28:02.016Z,99483.41
2022-09-02T06:30:39.621Z,99485.69
2022-09-02T06:33:10.367Z,99466.59
2022-09-02T06:35:47.535Z,99478.59
2022-09-02T06:38:21.431Z,99466.41
2022-09-02T06:40:57.214Z,99478.94
2022-09-02T06:43:42.386Z,99472.53
2022-09-02T06:46:43.332Z,99477.72
2022-09-02T06:49:18.000Z,99474.13
2022-09-02T06:51:54.902Z,99472.72
2022-09-02T06:55:03.874Z,99480.50
2022-09-02T06:57:38.357Z,99475.84
2022-09-02T07:00:14.577Z,99474.38
2022-09-02T07:03:06.413Z,99474.72
2022-09-02T07:15:00.835Z,99477.94
2022-09-02T07:17:39.999Z,99462.19
2022-09-02T07:20:14.944Z,99460.16
2022-09-02T07:22:57.372Z,99467.41
2022-09-02T07:25:29.884Z,99465.44
2022-09-02T07:27:59.872Z,99459.50
2022-09-02T07:30:34.273Z,99461.97
2022-09-02T07:33:23.273Z,99459.91
2022-09-02T07:35:54.663Z,99466.66
2022-09-02T07:38:27.424Z,99457.16
2022-09-02T07:41:00.604Z,99459.81
2022-09-02T07:43:42.725Z,99450.06
2022-09-02T07:46:19.589Z,99454.09
2022-09-02T07:48:57.223Z,99451.63
2022-09-02T07:51:30.885Z,99447.44
2022-09-02T07:54:15.917Z,99444.84
2022-09-02T07:56:47.611Z,99448.88
2022-09-02T07:59:19.258Z,99449.38
2022-09-02T08:01:51.695Z,99442.41
2022-09-02T08:04:25.372Z,99437.75
2022-09-02T08:06:58.986Z,99439.97
2022-09-02T08:09:29.368Z,99434.00
2022-09-02T08:12:08.048Z,99437.31
2022-09-02T08:14:48.033Z,99431.56
2022-09-02T08:17:19.359Z,99440.19
2022-09-02T08:19:52.980Z,99440.13
2022-09-02T08:22:26.154Z,99435.78
2022-09-02T08:25:07.925Z,99443.72
2022-09-02T08:30:31.807Z,99442.53
2022-09-02T08:33:04.219Z,99452.28
2022-09-02T08:35:37.523Z,99447.31
2022-09-02T08:38:18.080Z,99446.59
2022-09-02T08:40:52.564Z,99443.31
2022-09-02T08:43:35.072Z,99446.97
2022-09-02T08:46:15.273Z,99443.56
2022-09-02T08:48:53.945Z,99455.00
2022-09-02T08:51:37.055Z,99446.25
2022-09-02T08:54:15.259Z,99449.56
2022-09-02T08:56:45.017Z,99456.00
2022-09-02T08:59:15.947Z,99444.75
2022-09-02T09:01:52.259Z,99448.50
2022-09-02T09:04:36.533Z,99439.91
2022-09-02T09:07:22.089Z,99428.06
2022-09-02T09:10:07.727Z,99424.66
2022-09-02T09:13:04.352Z,99420.13
2022-09-02T09:15:48.831Z,99420.00
2022-09-02T09:18:36.131Z,99423.44
2022-09-02T09:21:10.970Z,99419.84
2022-09-02T09:23:46.834Z,99411.25
2022-09-02T09:26:22.560Z,99409.41
2022-09-02T09:28:55.796Z,99420.34
2022-09-02T09:31:32.477Z,99410.16
2022-09-02T09:34:09.705Z,99419.84
2022-09-02T09:36:51.408Z,99412.50
2022-09-02T09:39:27.941Z,99406.53
2022-09-02T09:42:01.892Z,99417.03
2022-09-02T09:44:45.766Z,99416.44
2022-09-02T09:47:23.021Z,99404.53
2022-09-02T09:50:10.293Z,99403.91
2022-09-02T09:52:40.705Z,99418.72
2022-09-02T09:55:25.209Z,99412.97
2022-09-02T09:58:11.195Z,99392.03
2022-09-02T10:00:41.531Z,99392.94
2022-09-02T10:03:24.958Z,99386.84
2022-09-02T10:05:59.227Z,99385.59
2022-09-02T10:08:31.504Z,99393.88
2022-09-02T10:11:06.464Z,99404.38
2022-09-02T10:13:39.414Z,99399.50
2022-09-02T10:16:31.147Z,99397.94
2022-09-02T10:19:14.359Z,99397.31
2022-09-02T10:22:17.806Z,99390.78
2022-09-02T10:25:07.950Z,99388.41
2022-09-02T10:27:52.542Z,99389.19
2022-09-02T10:30:26.325Z,99381.09
2022-09-02T10:33:21.235Z,99370.59
2022-09-02T10:35:57.816Z,99373.41
2022-09-02T10:38:41.868Z,99375.59
2022-09-02T10:41:32.721Z,99369.97
2022-09-02T10:44:32.804Z,99378.72
2022-09-02T10:47:09.379Z,99374.19
2022-09-02T10:50:01.709Z,99357.56
2022-09-02T10:53:12.502Z,99357.88
2022-09-02T10:55:57.284Z,99359.84
2022-09-02T10:58:45.416Z,99345.19
2022-09-02T11:01:22.291Z,99343.25
2022-09-02T11:04:06.973Z,99342.19
2022-09-02T11:07:01.272Z,99338.41
2022-09-02T11:09:37.659Z,99337.78
2022-09-02T11:12:15.988Z,99333.38
2022-09-02T11:14:59.342Z,99331.81
2022-09-02T11:17:39.113Z,99327.25
2022-09-02T11:20:17.806Z,99324.91
2022-09-02T11:22:59.102Z,99313.94
2022-09-02T11:25:38.843Z,99316.59
2022-09-02T11:28:27.120Z,99300.78
2022-09-02T11:31:06.865Z,99295.31
2022-09-02T11:33:54.013Z,99290.63
2022-09-02T11:36:25.421Z,99311.63
2022-09-02T11:39:03.871Z,99301.47
2022-09-02T11:41:57.364Z,99298.69
2022-09-02T11:45:03.475Z,99311.88
2022-09-02T11:48:39.809Z,99283.09
2022-09-02T11:51:38.830Z,99291.06
2022-09-02T11:54:11.065Z,99279.13
2022-09-02T11:56:48.857Z,99289.28
2022-09-02T11:59:24.843Z,99281.47
2022-09-02T12:01:57.128Z,99285.41
2022-09-02T12:07:32.735Z,99280.56
2022-09-02T12:10:06.370Z,99280.56
2022-09-02T12:13:08.434Z,99273.38
2022-09-02T12:15:40.756Z,99266.44
2022-09-02T12:18:31.104Z,99265.78
2022-09-02T12:21:16.521Z,99270.16
2022-09-02T12:24:20.997Z,99268.28
2022-09-02T12:27:23.093Z,99266.63
2022-09-02T12:29:57.133Z,99256.16
2022-09-02T12:33:09.862Z,99252.25
2022-09-02T12:35:56.682Z,99251.78
2022-09-02T12:38:40.178Z,99245.16
2022-09-02T12:41:24.545Z,99249.38
2022-09-02T12:44:34.933Z,99237.53
2022-09-02T12:47:13.691Z,99232.22
2022-09-02T12:49:50.068Z,99225.50
2022-09-02T12:52:47.328Z,99228.91
2022-09-02T12:55:26.563Z,99225.16
2022-09-02T12:58:11.348Z,99229.19
2022-09-02T13:00:59.792Z,99224.81
2022-09-02T13:04:22.513Z,99219.34
2022-09-02T13:07:44.293Z,99211.50
2022-09-02T13:10:58.336Z,99208.53
2022-09-02T13:14:18.147Z,99198.84
2022-09-02T13:17:35.146Z,99210.72
2022-09-02T13:20:55.833Z,99212.00
2022-09-02T13:24:18.227Z,99202.00
2022-09-02T13:27:38.186Z,99186.63
2022-09-02T13:30:23.062Z,99184.91
2022-09-02T13:33:02.071Z,99182.53
2022-09-02T13:35:39.692Z,99188.94
2022-09-02T13:38:12.870Z,99183.91
2022-09-02T13:40:46.340Z,99183.31
2022-09-02T13:43:21.948Z,99172.88
2022-09-02T13:45:55.041Z,99173.63
2022-09-02T13:48:28.419Z,99177.41
2022-09-02T13:51:14.634Z,99169.91
2022-09-02T13:54:21.609Z,99163.78
2022-09-02T13:56:41.280Z,99158.94
2022-09-02T13:59:11.347Z,99154.69
2022-09-02T14:01:44.012Z,99152.03
2022-09-02T14:04:19.744Z,99148.75
2022-09-02T14:06:49.748Z,99151.06
2022-09-02T14:09:27.302Z,99148.75
2022-09-02T14:12:03.397Z,99151.06
2022-09-02T14:14:38.112Z,99146.53
2022-09-02T14:17:23.144Z,99143.41
2022-09-02T14:20:24.004Z,99132.66
2022-09-02T14:23:00.289Z,99120.91
2022-09-02T14:25:36.736Z,99126.38
2022-09-02T14:28:13.607Z,99110.84
2022-09-02T14:30:58.949Z,99109.13
2022-09-02T14:33:43.877Z,99101.13
2022-09-02T14:36:34.946Z,99107.06
2022-09-02T14:39:16.005Z,99103.34
2022-09-02T14:41:48.759Z,99107.88
2022-09-02T14:44:25.040Z,99102.88
2022-09-02T14:46:58.309Z,99097.88
2022-09-02T14:49:32.654Z,99089.44
2022-09-02T14:52:05.283Z,99097.09
2022-09-02T14:54:44.553Z,99095.66
2022-09-02T14:57:24.571Z,99091.91
2022-09-02T14:59:54.428Z,99086.59
2022-09-02T15:02:30.121Z,99060.75
2022-09-02T15:05:04.097Z,99080.47
2022-09-02T15:07:33.761Z,99069.06
2022-09-02T15:10:04.280Z,99079.84
2022-09-02T15:12:36.674Z,99067.34
2022-09-02T15:15:07.576Z,99080.94
2022-09-02T15:17:37.115Z,99078.28
2022-09-02T15:20:11.186Z,99071.88
2022-09-02T15:22:40.718Z,99065.47
2022-09-02T15:25:11.205Z,99068.25
2022-09-02T15:27:40.753Z,99063.81
2022-09-02T15:30:12.279Z,99064.28
2022-09-02T15:32:42.193Z,99060.06
2022-09-02T15:35:13.178Z,99066.16
2022-09-02T15:37:44.160Z,99067.25
2022-09-02T15:40:13.822Z,99054.81
2022-09-02T15:43:01.861Z,99054.31
2022-09-02T15:45:35.353Z,99059.34
2022-09-02T15:48:06.248Z,99061.09
2022-09-02T15:50:37.077Z,99060.75
2022-09-02T15:53:06.475Z,99059.66
2022-09-02T15:55:36.419Z,99057.16
2022-09-02T15:58:05.861Z,99054.81
2022-09-02T16:00:35.307Z,99049.50
2022-09-02T16:03:06.790Z,99052.16
2022-09-02T16:05:37.831Z,99049.00
2022-09-02T16:08:07.268Z,99051.66
2022-09-02T16:10:38.439Z,99042.47
2022-09-02T16:13:08.043Z,99054.31
2022-09-02T16:15:37.455Z,99046.53
2022-09-02T16:18:07.028Z,99055.59
2022-09-02T16:20:44.603Z,99048.38
2022-09-02T16:23:29.019Z,99052.16
2022-09-02T16:26:11.878Z,99060.75
2022-09-02T16:28:43.984Z,99059.53
2022-09-02T16:31:17.420Z,99062.19
2022-09-02T16:33:52.871Z,99062.97
2022-09-02T16:36:31.944Z,99057.53
2022-09-02T16:39:05.408Z,99060.50
2022-09-02T16:41:38.045Z,99063.16
2022-09-02T16:44:09.277Z,99051.41
2022-09-02T16:46:41.742Z,99062.06
2022-09-02T16:49:13.289Z,99051.41
2022-09-02T16:51:44.546Z,99065.94
2022-09-02T16:54:17.747Z,99058.28
2022-09-02T16:56:50.685Z,99070.69
2022-09-02T16:59:20.482Z,99059.16
2022-09-02T17:01:50.071Z,99059.47
2022-09-02T17:04:19.638Z,99063.56
2022-09-02T17:06:50.494Z,99050.00
2022-09-02T17:09:20.771Z,99054.84
2022-09-02T17:11:50.367Z,99058.81
2022-09-02T17:14:23.340Z,99055.72
2022-09-02T17:16:53.056Z,99057.25
2022-09-02T17:19:24.473Z,99058.94
2022-09-02T17:21:58.309Z,99059.28
2022-09-02T17:24:30.875Z,99062.56
2022-09-02T17:27:02.231Z,99052.47
2022-09-02T17:29:48.531Z,99054.50
2022-09-02T17:32:19.076Z,99061.91
2022-09-02T17:34:50.483Z,99054.41
2022-09-02T17:37:40.410Z,99048.38
2022-09-02T17:40:45.634Z,99056.53
2022-09-02T17:43:33.564Z,99052.38
2022-09-02T17:46:21.954Z,99052.56
2022-09-02T17:49:17.926Z,99055.84
2022-09-02T17:52:10.420Z,99052.88
2022-09-02T17:54:59.510Z,99055.38
2022-09-02T17:58:02.956Z,99038.09
2022-09-02T18:00:56.878Z,99033.25
2022-09-02T18:03:57.935Z,99041.34
2022-09-02T18:06:48.112Z,99033.06
2022-09-02T18:09:35.816Z,99042.63
2022-09-02T18:12:26.854Z,99049.78
2022-09-02T18:15:19.684Z,99044.00
2022-09-02T18:18:07.799Z,99048.56
2022-09-02T18:21:04.065Z,99047.03
2022-09-02T18:24:01.620Z,99042.03
2022-09-02T18:27:01.238Z,99052.50
2022-09-02T18:30:04.046Z,99045.50
2022-09-02T18:33:36.435Z,99052.22
2022-09-02T18:36:39.329Z,99048.19
2022-09-02T18:39:44.374Z,99041.84
2022-09-02T18:42:46.570Z,99043.09
2022-09-02T18:45:45.190Z,99042.41
2022-09-02T18:48:36.055Z,99029.16
2022-09-02T18:51:35.706Z,99048.06
2022-09-02T18:54:28.933Z,99048.56
2022-09-02T18:57:17.502Z,99042.66
2022-09-02T19:00:09.712Z,99043.28
2022-09-02T19:03:02.563Z,99054.84
2022-09-02T19:05:50.768Z,99058.47
2022-09-02T19:08:38.334Z,99055.97
2022-09-02T19:11:27.432Z,99059.56
2022-09-02T19:14:27.481Z,99055.56
2022-09-02T19:17:15.283Z,99047.75
2022-09-02T19:20:05.559Z,99050.59
2022-09-02T19:22:57.390Z,99062.47
2022-09-02T19:25:46.278Z,99055.28
2022-09-02T19:28:34.459Z,99077.16
2022-09-02T19:31:27.169Z,99068.56
2022-09-02T19:34:16.423Z,99071.72
2022-09-02T19:37:06.766Z,99067.63
2022-09-02T19:39:55.233Z,99073.13
2022-09-02T19:42:43.594Z,99070.28
2022-09-02T19:45:36.230Z,99078.72
2022-09-02T19:48:24.596Z,99066.72
2022-09-02T19:51:17.028Z,99060.78
2022-09-02T19:54:08.778Z,99069.06
2022-09-02T19:56:56.870Z,99070.00
2022-09-02T19:59:45.001Z,99071.72
2022-09-02T20:02:35.886Z,99072.66
2022-09-02T20:05:29.576Z,99072.34
2022-09-02T20:08:31.273Z,99085.47
2022-09-02T20:11:21.653Z,99080.91
2022-09-02T20:14:10.580Z,99077.81
2022-09-02T20:17:02.501Z,99089.78
2022-09-02T20:19:50.918Z,99084.63
2022-09-02T20:22:50.383Z,99081.97
2022-09-02T20:26:03.206Z,99074.44
2022-09-02T20:29:08.612Z,99076.97
2022-09-02T20:32:24.547Z,99074.78
2022-09-02T20:40:33.653Z,99066.00
2022-09-02T21:51:30.335Z,99076.56
2022-09-02T22:29:07.362Z,99059.81
2022-09-02T22:33:00.804Z,99054.06
2022-09-02T22:53:04.452Z,99042.06
2022-09-02T22:56:49.764Z,99042.06
